Time;durP1;ratioP1;P1;durP2;ratioP2;P2;SDS_P1;SDS_P2;PMS_P1;PMS_P2;Temp;Humidity;BMP_temperature;BMP_pressure;BME280_temperature;BME280_humidity;BME280_pressure;Samples;Min_cycle;Max_cycle;Signal;HPM_P1;HPM_P2
2023/06/04 00:00:00;;;;;;;5.90;2.40;;;;;;;9.93;55.22;101132.70;221698;1264;139177;-87
2023/06/04 00:05:01;;;;;;;4.20;2.00;;;;;;;9.85;55.61;101134.54;221860;1268;138245;-87
2023/06/04 00:10:01;;;;;;;5.20;1.70;;;;;;;9.78;55.65;101136.80;221652;1268;138427;-86
2023/06/04 00:15:02;;;;;;;5.30;1.90;;;;;;;9.69;55.55;101130.59;222100;1266;137639;-86
2023/06/04 00:20:02;;;;;;;6.40;2.30;;;;;;;9.60;55.92;101128.54;221598;1264;139069;-87
2023/06/04 00:25:04;;;;;;;4.80;2.00;;;;;;;9.53;56.34;101124.51;221956;1264;137460;-86
2023/06/04 00:30:05;;;;;;;7.20;1.90;;;;;;;9.45;56.89;101117.64;221368;1264;139066;-87
2023/06/04 00:35:06;;;;;;;6.10;2.10;;;;;;;9.37;56.88;101118.58;222202;1264;137495;-86
2023/06/04 00:40:07;;;;;;;5.90;2.10;;;;;;;9.28;57.24;101113.87;221469;1264;139197;-86
2023/06/04 00:45:09;;;;;;;7.20;2.40;;;;;;;9.19;57.65;101113.46;222153;1264;137562;-87
2023/06/04 00:50:10;;;;;;;6.10;2.10;;;;;;;9.09;58.03;101113.89;221315;1264;139143;-87
2023/06/04 00:55:10;;;;;;;7.00;2.10;;;;;;;8.99;58.50;101113.94;222266;1263;138372;-86
2023/06/04 01:00:12;;;;;;;9.30;2.70;;;;;;;8.90;58.60;101117.11;221566;1264;140432;-86
2023/06/04 01:05:29;;;;;;;8.30;2.00;;;;;;;8.82;59.17;101116.96;222098;1264;137475;-88
2023/06/04 01:10:29;;;;;;;;;;;;;;;8.74;60.18;101114.15;221504;1264;139637;-86
2023/06/04 01:15:30;;;;;;;6.00;1.80;;;;;;;8.63;60.58;101111.64;222186;1264;96547;-88
2023/06/04 01:20:36;;;;;;;6.60;2.30;;;;;;;8.54;60.74;101113.55;221540;1264;138914;-87
2023/06/04 01:25:39;;;;;;;6.50;2.70;;;;;;;8.46;61.07;101112.36;222271;1264;137697;-87
2023/06/04 01:30:45;;;;;;;6.70;2.80;;;;;;;8.40;61.33;101111.87;221591;1264;138216;-87
2023/06/04 01:35:46;;;;;;;8.20;2.60;;;;;;;8.32;61.92;101110.44;221932;1264;137480;-87
2023/06/04 01:40:46;;;;;;;6.80;2.30;;;;;;;8.23;61.89;101112.98;221533;1267;138305;-87
2023/06/04 01:45:48;;;;;;;7.70;2.90;;;;;;;8.15;62.45;101110.27;222177;1264;97056;-87
2023/06/04 01:50:48;;;;;;;6.80;2.70;;;;;;;8.08;63.04;101109.48;221374;1264;138099;-87
2023/06/04 01:55:49;;;;;;;6.90;2.80;;;;;;;7.99;63.11;101106.77;221929;1264;139800;-86
2023/06/04 02:00:49;;;;;;;9.50;3.10;;;;;;;7.93;63.30;101108.61;221407;1264;139794;-87
2023/06/04 02:05:50;;;;;;;7.00;2.50;;;;;;;7.86;63.73;101105.63;221914;1264;138578;-86
2023/06/04 02:10:50;;;;;;;5.90;2.50;;;;;;;7.80;63.90;101104.50;221598;1264;139151;-87
2023/06/04 02:15:51;;;;;;;6.70;2.40;;;;;;;7.73;64.35;101103.02;222240;1264;96481;-88
2023/06/04 02:20:51;;;;;;;6.50;2.70;;;;;;;7.65;65.05;101101.59;221359;1264;139068;-86
2023/06/04 02:25:51;;;;;;;7.00;2.60;;;;;;;7.58;64.92;101100.39;221931;1264;137720;-87
2023/06/04 02:30:52;;;;;;;6.20;2.30;;;;;;;7.52;65.47;101107.33;221570;1266;139700;-88
2023/06/04 02:35:52;;;;;;;11.70;3.20;;;;;;;7.46;65.91;101111.16;222337;1264;137575;-88
2023/06/04 02:40:53;;;;;;;7.40;2.60;;;;;;;7.39;65.96;101108.67;221577;1264;150427;-86
2023/06/04 02:45:53;;;;;;;7.50;2.60;;;;;;;7.33;66.34;101107.53;222179;1264;96493;-87
2023/06/04 02:50:54;;;;;;;6.70;2.70;;;;;;;7.29;66.55;101106.14;221748;1264;140347;-87
2023/06/04 02:55:54;;;;;;;5.80;2.50;;;;;;;7.25;67.25;101113.10;221896;1264;137317;-87
2023/06/04 03:00:55;;;;;;;8.60;2.80;;;;;;;7.21;67.46;101107.80;221286;1264;138228;-87
2023/06/04 03:05:55;;;;;;;6.50;2.30;;;;;;;7.16;67.47;101107.55;221972;1264;137486;-87
2023/06/04 03:10:56;;;;;;;7.00;2.90;;;;;;;7.12;67.49;101105.29;221242;1266;142644;-88
2023/06/04 03:16:00;;;;;;;12.20;2.70;;;;;;;7.09;68.37;101105.73;222047;1264;96662;-87
2023/06/04 03:21:01;;;;;;;4.50;2.10;;;;;;;7.06;68.35;101105.79;221417;1264;139322;-87
2023/06/04 03:26:02;;;;;;;8.40;2.70;;;;;;;7.04;68.58;101106.27;222084;1264;138118;-87
2023/06/04 03:31:02;;;;;;;8.70;2.80;;;;;;;7.03;69.36;101107.17;221341;1264;139819;-87
2023/06/04 03:36:03;;;;;;;8.00;3.10;;;;;;;7.03;69.78;101110.36;222028;1264;138121;-86
2023/06/04 03:41:03;;;;;;;7.30;2.70;;;;;;;7.03;70.29;101107.00;221476;1264;139623;-87
2023/06/04 03:46:04;;;;;;;8.30;2.90;;;;;;;7.06;70.96;101106.86;222289;1264;96554;-87
2023/06/04 03:51:04;;;;;;;6.00;2.80;;;;;;;7.08;71.31;101107.50;221523;1264;139695;-86
2023/06/04 03:56:05;;;;;;;7.20;3.00;;;;;;;7.12;72.03;101106.23;221871;1264;138424;-87
2023/06/04 04:01:06;;;;;;;5.50;2.60;;;;;;;7.17;72.26;101106.20;221352;1268;138195;-87
2023/06/04 04:06:07;;;;;;;7.50;2.80;;;;;;;7.22;72.77;101107.81;221890;1266;138253;-88
2023/06/04 04:11:17;;;;;;;8.00;2.50;;;;;;;7.31;72.05;101108.78;221376;1264;139719;-87
2023/06/04 04:16:17;;;;;;;5.00;1.60;;;;;;;7.52;70.23;101107.93;221949;1268;96529;-86
2023/06/04 04:21:17;;;;;;;5.30;1.70;;;;;;;7.70;68.88;101104.48;221413;1264;139680;-85
2023/06/04 04:26:18;;;;;;;7.10;1.80;;;;;;;7.95;67.77;101103.75;221992;1264;138064;-87
2023/06/04 04:31:19;;;;;;;7.20;2.50;;;;;;;8.25;66.99;101101.22;221564;1264;140313;-86
2023/06/04 04:36:24;;;;;;;6.40;2.30;;;;;;;8.55;66.56;101098.53;221855;1264;138160;-88
2023/06/04 04:41:26;;;;;;;6.30;2.10;;;;;;;8.80;66.02;101103.65;221700;1268;141581;-87
2023/06/04 04:46:26;;;;;;;6.50;1.80;;;;;;;9.06;65.44;101106.58;222080;1264;138770;-87
2023/06/04 04:51:27;;;;;;;8.00;2.40;;;;;;;9.36;65.12;101110.65;221881;1264;139886;-89
2023/06/04 04:56:28;;;;;;;6.70;1.70;;;;;;;9.62;64.56;101112.89;221997;1264;137618;-87
2023/06/04 05:01:29;;;;;;;6.20;2.10;;;;;;;9.82;64.30;101117.26;221647;1267;138756;-87
2023/06/04 05:06:30;;;;;;;8.70;2.30;;;;;;;10.03;64.00;101115.90;221853;1264;137505;-86
2023/06/04 05:11:30;;;;;;;7.60;1.90;;;;;;;10.35;63.81;101116.75;221459;1264;138496;-85
2023/06/04 05:16:31;;;;;;;6.00;2.40;;;;;;;10.79;63.18;101116.86;221812;1264;137943;-87
2023/06/04 05:21:31;;;;;;;5.70;2.40;;;;;;;11.32;62.78;101111.40;221504;1264;139044;-87
2023/06/04 05:26:32;;;;;;;7.00;2.60;;;;;;;11.95;62.74;101114.98;221936;1264;138122;-87
2023/06/04 05:31:34;;;;;;;7.60;2.10;;;;;;;12.74;60.95;101114.74;221495;1264;144240;-87
2023/06/04 05:36:35;;;;;;;6.10;2.30;;;;;;;13.66;60.28;101117.73;222152;1267;137836;-88
2023/06/04 05:41:37;;;;;;;7.10;2.30;;;;;;;14.68;58.48;101116.70;221298;1264;143352;-87
2023/06/04 05:46:37;;;;;;;5.70;2.20;;;;;;;15.68;55.87;101111.99;221877;1264;137826;-87
2023/06/04 05:51:38;;;;;;;7.30;2.20;;;;;;;16.70;54.28;101113.29;221470;1264;139351;-87
2023/06/04 05:56:38;;;;;;;5.70;2.40;;;;;;;17.61;52.14;101118.77;222014;1264;137659;-86
2023/06/04 06:01:39;;;;;;;5.70;2.00;;;;;;;18.51;49.75;101121.94;221480;1264;138364;-87
2023/06/04 06:06:40;;;;;;;5.60;2.30;;;;;;;19.15;47.57;101125.69;221721;1264;137890;-88
2023/06/04 06:11:41;;;;;;;6.20;2.30;;;;;;;19.83;46.91;101132.23;221490;1264;138710;-87
2023/06/04 06:16:43;;;;;;;5.90;2.10;;;;;;;20.55;45.31;101129.98;222033;1264;137765;-88
2023/06/04 06:21:44;;;;;;;6.70;2.40;;;;;;;21.11;43.37;101133.30;221607;1264;139047;-88
2023/06/04 06:26:45;;;;;;;6.40;2.30;;;;;;;21.73;42.61;101134.80;221896;1264;137824;-86
2023/06/04 06:31:46;;;;;;;8.90;2.70;;;;;;;22.21;41.38;101139.09;221421;1264;139977;-87
2023/06/04 06:36:49;;;;;;;5.40;2.00;;;;;;;22.55;40.13;101149.55;217997;1264;5082559;-90
2023/06/04 06:41:50;;;;;;;5.00;2.40;;;;;;;23.04;39.64;101149.95;221439;1264;139680;-89
2023/06/04 06:46:50;;;;;;;7.50;2.60;;;;;;;23.49;38.49;101152.89;221943;1264;137788;-90
2023/06/04 06:51:51;;;;;;;8.30;2.40;;;;;;;23.93;37.38;101153.13;221533;1266;139864;-91
2023/06/04 06:56:53;;;;;;;6.70;2.20;;;;;;;23.85;36.27;101154.16;222041;1264;137863;-89
2023/06/04 07:01:54;;;;;;;4.20;1.90;;;;;;;23.72;36.44;101151.87;221114;1264;143200;-89
2023/06/04 07:07:05;;;;;;;5.10;2.00;;;;;;;24.32;35.57;101152.40;221930;1266;137951;-90
2023/06/04 07:12:07;;;;;;;4.50;2.10;;;;;;;24.83;35.29;101151.91;221482;1264;140214;-93
2023/06/04 07:17:08;;;;;;;3.70;1.60;;;;;;;25.11;33.95;101153.80;222050;1268;137843;-86
2023/06/04 07:22:08;;;;;;;6.10;1.90;;;;;;;25.49;33.29;101150.36;221832;1264;139099;-87
2023/06/04 07:27:13;;;;;;;5.00;2.00;;;;;;;25.98;32.76;101145.77;222040;1264;137735;-90
2023/06/04 07:32:16;;;;;;;5.30;1.70;;;;;;;26.21;31.70;101151.33;221387;1267;138403;-91
2023/06/04 07:37:16;;;;;;;4.80;1.80;;;;;;;26.29;31.51;101154.29;222033;1266;137967;-92
2023/06/04 07:42:20;;;;;;;5.10;1.70;;;;;;;26.45;31.20;101153.76;221271;1264;139670;-94
2023/06/04 07:47:24;;;;;;;3.00;1.20;;;;;;;26.63;30.21;101160.77;222147;1266;137943;-94
2023/06/04 07:52:25;;;;;;;2.70;1.40;;;;;;;26.90;29.79;101160.66;221797;1264;138986;-88
2023/06/04 07:57:25;;;;;;;4.10;1.20;;;;;;;27.32;28.81;101155.15;222319;1266;102573;-89
2023/06/04 08:02:27;;;;;;;3.60;1.40;;;;;;;27.49;27.99;101149.02;221711;1264;138454;-96
2023/06/04 08:07:30;;;;;;;3.60;1.10;;;;;;;27.66;28.41;101148.63;221985;1266;137945;-95
2023/06/04 08:12:31;;;;;;;4.30;1.40;;;;;;;27.99;27.91;101146.06;221219;1267;150534;-94
2023/06/04 08:17:32;;;;;;;3.30;1.40;;;;;;;27.94;27.24;101149.70;222014;1266;137809;-93
2023/06/04 08:22:32;;;;;;;2.80;1.10;;;;;;;28.23;27.71;101154.64;221593;1266;139295;-94
2023/06/04 08:27:42;;;;;;;7.60;1.20;;;;;;;28.95;27.33;101153.55;222116;1266;96628;-94
2023/06/04 08:32:43;;;;;;;5.30;1.00;;;;;;;29.19;25.92;101151.61;221793;1264;138691;-92
2023/06/04 08:37:44;;;;;;;2.80;1.20;;;;;;;29.46;26.34;101149.26;222047;1266;138398;-93
2023/06/04 08:43:04;;;;;;;3.70;1.50;;;;;;;30.20;26.75;101145.52;221515;1267;138945;-94
2023/06/04 08:48:10;;;;;;;2.70;1.30;;;;;;;31.10;25.92;101145.86;222021;1266;137819;-94
2023/06/04 08:53:13;;;;;;;3.50;1.40;;;;;;;31.44;25.12;101139.35;221419;1265;139111;-89
2023/06/04 08:58:14;;;;;;;5.30;1.70;;;;;;;31.22;25.25;101142.24;222011;1264;96586;-90
2023/06/04 09:03:16;;;;;;;3.70;1.60;;;;;;;31.77;24.43;101139.52;221442;1265;139039;-88
2023/06/04 09:08:19;;;;;;;3.10;1.50;;;;;;;31.85;23.33;101141.17;222206;1267;137753;-95
2023/06/04 09:13:23;;;;;;;4.30;1.70;;;;;;;31.93;23.30;101137.81;221576;1266;139587;-93
2023/06/04 09:18:26;;;;;;;3.70;1.30;;;;;;;31.96;22.97;101132.35;221941;1266;138026;-92
2023/06/04 09:23:27;;;;;;;3.70;1.50;;;;;;;32.05;22.74;101131.23;221513;1264;140392;-89
2023/06/04 09:28:30;;;;;;;3.80;1.40;;;;;;;32.21;22.98;101125.77;222272;1266;137909;-84
2023/06/04 09:33:42;;;;;;;4.40;1.60;;;;;;;32.81;22.37;101128.30;221762;1266;139527;-95
2023/06/04 09:38:43;;;;;;;3.80;1.40;;;;;;;32.99;21.60;101126.02;221878;1264;137908;-90
2023/06/04 09:43:44;;;;;;;3.50;1.50;;;;;;;31.93;20.97;101124.52;221717;1266;139115;-91
2023/06/04 09:48:44;;;;;;;4.90;1.50;;;;;;;31.20;21.71;101120.24;222254;1264;137835;-93
2023/06/04 09:54:14;;;;;;;3.30;1.30;;;;;;;30.78;21.61;101119.98;221759;1266;139419;-90
2023/06/04 09:59:15;;;;;;;5.20;1.60;;;;;;;30.92;22.68;101120.50;221355;1266;140186;-95
2023/06/04 10:04:15;;;;;;;3.00;1.30;;;;;;;31.40;22.30;101122.04;222125;1264;96567;-94
2023/06/04 10:09:20;;;;;;;5.30;1.50;;;;;;;31.54;21.48;101124.70;221533;1267;139011;-92
2023/06/04 10:14:36;;;;;;;6.50;1.60;;;;;;;31.14;22.12;101126.28;221935;1266;138166;-92
2023/06/04 10:19:38;;;;;;;3.40;1.40;;;;;;;31.60;22.64;101127.34;221316;1268;140349;-89
2023/06/04 10:24:46;;;;;;;3.20;1.40;;;;;;;32.17;21.62;101121.98;221960;1265;138034;-95
2023/06/04 10:29:47;;;;;;;4.70;1.20;;;;;;;32.67;22.70;101120.20;221601;1266;139029;-92
2023/06/04 10:34:49;;;;;;;2.80;1.20;;;;;;;33.09;21.82;101118.39;221985;1264;138627;-89
2023/06/04 10:39:55;;;;;;;2.60;1.20;;;;;;;32.83;20.76;101113.22;221863;1265;139782;-90
2023/06/04 10:44:55;;;;;;;4.70;1.40;;;;;;;32.94;21.49;101111.34;221944;1266;138028;-93
2023/06/04 10:50:07;;;;;;;3.50;1.50;;;;;;;33.45;20.35;101108.07;221446;1266;140872;-91
2023/06/04 10:55:09;;;;;;;3.60;1.30;;;;;;;33.28;19.87;101108.81;221952;1268;137849;-93
2023/06/04 11:00:10;;;;;;;4.00;1.60;;;;;;;33.56;21.17;101112.90;221471;1264;138764;-91
2023/06/04 11:05:11;;;;;;;2.90;1.30;;;;;;;34.09;21.35;101104.38;221950;1266;137766;-93
2023/06/04 11:10:14;;;;;;;3.60;1.30;;;;;;;33.82;20.16;101100.86;221625;1266;139550;-92
2023/06/04 11:15:16;;;;;;;3.60;1.50;;;;;;;33.37;20.25;101102.88;221927;1265;137671;-91
2023/06/04 11:20:22;;;;;;;3.00;1.50;;;;;;;33.43;20.79;101103.70;221411;1264;139521;-92
2023/06/04 11:25:26;;;;;;;2.90;1.20;;;;;;;33.52;20.12;101102.05;221954;1267;137920;-93
2023/06/04 11:30:26;;;;;;;3.80;1.40;;;;;;;33.56;19.44;101102.71;221548;1264;139405;-88
2023/06/04 11:35:27;;;;;;;3.70;1.20;;;;;;;33.55;19.52;101096.50;221930;1266;137818;-90
2023/06/04 11:40:27;;;;;;;2.70;1.30;;;;;;;33.45;19.90;101097.05;221421;1264;140306;-91
2023/06/04 11:45:30;;;;;;;2.90;1.10;;;;;;;33.28;20.41;101092.85;222084;1264;97125;-87
2023/06/04 11:50:31;;;;;;;5.20;1.70;;;;;;;33.52;20.10;101091.52;221684;1266;139438;-91
2023/06/04 11:55:32;;;;;;;4.60;1.60;;;;;;;33.65;19.86;101094.77;222297;1266;137774;-93
2023/06/04 12:00:32;;;;;;;4.10;1.40;;;;;;;33.71;19.10;101090.41;221435;1266;139216;-92
2023/06/04 12:05:35;;;;;;;2.50;1.30;;;;;;;33.48;20.45;101088.71;222056;1268;137844;-94
2023/06/04 12:10:43;;;;;;;2.50;1.40;;;;;;;33.44;20.81;101090.94;221407;1266;139694;-93
2023/06/04 12:16:25;;;;;;;6.10;1.70;;;;;;;33.86;21.04;101087.23;222017;1266;97136;-95
2023/06/04 12:21:28;;;;;;;2.60;1.30;;;;;;;34.08;20.83;101080.64;221792;1266;138240;-94
2023/06/04 12:26:29;;;;;;;2.90;1.50;;;;;;;34.34;21.70;101075.20;222032;1264;137773;-91
2023/06/04 12:31:31;;;;;;;4.80;1.50;;;;;;;34.43;21.01;101072.12;221485;1266;138704;-96
2023/06/04 12:36:35;;;;;;;3.70;1.40;;;;;;;34.58;21.01;101066.68;221919;1266;137803;-95
2023/06/04 12:41:36;;;;;;;3.10;1.40;;;;;;;34.64;21.02;101064.36;221494;1264;139338;-93
2023/06/04 12:46:37;;;;;;;2.40;1.20;;;;;;;34.59;21.11;101061.13;222062;1264;138299;-94
2023/06/04 12:51:38;;;;;;;4.80;1.40;;;;;;;34.81;21.00;101066.54;221426;1268;143034;-93
2023/06/04 12:56:43;;;;;;;3.30;1.40;;;;;;;34.64;19.70;101061.36;222108;1265;137728;-93
2023/06/04 13:02:00;;;;;;;4.90;1.40;;;;;;;34.10;19.83;101056.13;221378;1268;144354;-93
2023/06/04 13:07:03;;;;;;;2.70;1.20;;;;;;;34.01;20.12;101060.57;222015;1266;137856;-95
2023/06/04 13:12:05;;;;;;;5.90;1.70;;;;;;;33.76;20.84;101058.33;221536;1266;139498;-92
2023/06/04 13:17:20;;;;;;;4.20;1.30;;;;;;;33.53;20.11;101066.64;221961;1264;137812;-95
2023/06/04 13:22:21;;;;;;;;;;;;;;;33.07;21.87;101064.17;221805;1264;139371;-93
2023/06/04 13:27:23;;;;;;;2.80;1.30;;;;;;;33.07;21.43;101059.77;222132;1264;124105;-96
2023/06/04 13:32:25;;;;;;;2.70;1.40;;;;;;;32.55;19.47;101057.29;221563;1264;140582;-89
2023/06/04 13:37:25;;;;;;;5.20;1.40;;;;;;;32.03;19.99;101048.66;222273;1267;138032;-91
2023/06/04 13:42:26;;;;;;;3.20;1.10;;;;;;;31.37;20.42;101048.55;221354;1268;139425;-93
2023/06/04 13:47:26;;;;;;;3.50;1.40;;;;;;;31.00;21.11;101044.85;221966;1265;137859;-93
2023/06/04 13:52:35;;;;;;;1.90;1.10;;;;;;;30.72;21.54;101039.69;221613;1266;139520;-93
2023/06/04 13:57:41;;;;;;;3.90;1.30;;;;;;;30.56;22.60;101043.95;222009;1268;96476;-93
2023/06/04 14:02:43;;;;;;;2.70;1.20;;;;;;;30.37;23.58;101042.89;221468;1268;138308;-94
2023/06/04 14:07:44;;;;;;;4.10;1.00;;;;;;;30.70;23.98;101038.48;222118;1268;138622;-95
2023/06/04 14:18:43;;;;;;;2.10;1.00;;;;;;;30.94;25.82;101029.70;221533;1269;138055;-94
2023/06/04 14:23:46;;;;;;;2.00;1.30;;;;;;;31.14;24.07;101023.26;220961;1269;138496;-93
2023/06/04 14:34:53;;;;;;;2.70;1.30;;;;;;;30.79;24.38;101024.02;221061;1271;138210;-95
2023/06/04 14:40:14;;;;;;;4.70;0.90;;;;;;;30.89;25.28;101020.65;220481;1275;139627;-92
2023/06/04 14:45:22;;;;;;;3.60;1.20;;;;;;;30.84;23.80;101023.65;221011;1276;138103;-95
2023/06/04 14:50:22;;;;;;;1.60;1.10;;;;;;;30.65;24.64;101024.44;220613;1273;139257;-92
2023/06/04 14:55:24;;;;;;;3.80;1.40;;;;;;;30.67;24.26;101022.91;221161;1269;137980;-91
2023/06/04 15:00:25;;;;;;;3.40;1.20;;;;;;;30.24;22.35;101017.30;220643;1269;138915;-90
2023/06/04 15:05:25;;;;;;;3.20;1.50;;;;;;;29.29;21.43;101015.14;221866;1265;137819;-91
2023/06/04 15:10:29;;;;;;;2.60;1.30;;;;;;;28.94;23.20;101014.90;221613;1264;139358;-95
2023/06/04 15:15:30;;;;;;;2.60;1.30;;;;;;;28.84;24.79;101009.69;222086;1267;137618;-94
2023/06/04 15:20:30;;;;;;;3.20;1.20;;;;;;;28.78;25.59;101007.79;221499;1268;138970;-95
2023/06/04 15:31:29;;;;;;;4.60;1.50;;;;;;;28.34;24.32;101000.17;220998;1268;139979;-87
2023/06/04 15:42:34;;;;;;;2.60;1.30;;;;;;;27.66;25.41;100996.92;220874;1276;138657;-96
2023/06/04 15:47:41;;;;;;;4.40;1.20;;;;;;;27.27;26.65;100994.41;222132;1268;137955;-96
2023/06/04 15:52:42;;;;;;;3.20;1.20;;;;;;;26.99;26.30;100989.59;221240;1269;137879;-89
2023/06/04 15:57:43;;;;;;;5.00;1.80;;;;;;;26.79;26.58;100995.34;220060;1274;96792;-88
2023/06/04 16:02:43;;;;;;;4.10;1.40;;;;;;;26.53;26.73;100994.81;219363;1268;139560;-88
2023/06/04 16:07:43;;;;;;;3.10;1.10;;;;;;;26.26;26.92;100998.14;220108;1264;137898;-88
2023/06/04 16:12:44;;;;;;;2.60;1.30;;;;;;;26.02;26.63;100994.05;219555;1267;140152;-88
2023/06/04 16:17:47;;;;;;;2.70;1.40;;;;;;;25.78;27.50;100991.24;220802;1267;138038;-88
2023/06/04 16:22:48;;;;;;;3.50;1.70;;;;;;;25.58;26.70;100986.40;219771;1267;139660;-89
2023/06/04 16:27:49;;;;;;;3.00;1.10;;;;;;;25.25;27.37;100986.13;219973;1264;96577;-89
2023/06/04 16:32:49;;;;;;;6.60;1.80;;;;;;;24.90;27.23;100980.45;219797;1264;139274;-88
2023/06/04 16:37:49;;;;;;;4.50;1.30;;;;;;;24.66;27.60;100979.05;220276;1264;137938;-87
2023/06/04 16:42:51;;;;;;;4.10;1.60;;;;;;;24.43;27.44;100978.52;219448;1264;139590;-87
2023/06/04 16:47:51;;;;;;;2.50;1.20;;;;;;;24.18;27.89;100978.89;220108;1263;137999;-88
2023/06/04 16:52:52;;;;;;;3.00;1.40;;;;;;;23.74;27.96;100983.32;219529;1270;139304;-87
2023/06/04 16:57:52;;;;;;;2.30;1.10;;;;;;;23.62;29.15;100987.08;219620;1267;110050;-86
2023/06/04 17:02:57;;;;;;;3.90;1.40;;;;;;;23.50;29.61;100986.91;219144;1267;141038;-87
2023/06/04 17:07:58;;;;;;;4.40;1.50;;;;;;;23.32;30.06;100983.76;219653;1270;137762;-87
2023/06/04 17:13:00;;;;;;;1.60;1.00;;;;;;;23.15;30.35;100989.16;219153;1265;138999;-87
2023/06/04 17:18:01;;;;;;;5.10;1.50;;;;;;;22.94;30.06;100988.52;219611;1267;137877;-88
2023/06/04 17:23:01;;;;;;;2.50;1.30;;;;;;;22.72;30.59;100992.55;219790;1268;140300;-89
2023/06/04 17:28:02;;;;;;;3.90;1.30;;;;;;;22.54;31.13;100989.80;220040;1266;96554;-88
2023/06/04 17:33:02;;;;;;;2.80;1.30;;;;;;;22.32;31.27;100990.42;219377;1267;139353;-88
2023/06/04 17:38:02;;;;;;;3.40;1.20;;;;;;;22.08;31.42;100985.71;219909;1267;138000;-87
2023/06/04 17:43:03;;;;;;;4.00;1.50;;;;;;;21.91;32.39;100983.84;219225;1266;139312;-87
2023/06/04 17:48:05;;;;;;;5.50;1.70;;;;;;;21.69;32.73;100988.89;219797;1267;137967;-86
2023/06/04 17:53:05;;;;;;;3.50;1.40;;;;;;;21.49;33.70;100986.74;219272;1266;140957;-87
2023/06/04 17:58:06;;;;;;;3.90;1.30;;;;;;;21.34;33.44;100990.17;220028;1267;96586;-87
2023/06/04 18:03:07;;;;;;;5.40;1.70;;;;;;;21.17;33.90;100988.70;219655;1265;138484;-87
2023/06/04 18:08:11;;;;;;;4.70;1.40;;;;;;;20.94;34.01;100997.80;220259;1267;138036;-87
2023/06/04 18:13:11;;;;;;;5.90;1.50;;;;;;;20.71;34.75;101002.52;219573;1266;139838;-86
2023/06/04 18:18:13;;;;;;;5.40;1.40;;;;;;;20.49;36.20;101008.02;219817;1266;137850;-87
2023/06/04 18:23:14;;;;;;;4.40;1.40;;;;;;;20.33;37.10;101012.23;219184;1265;139046;-86
2023/06/04 18:28:15;;;;;;;4.10;1.40;;;;;;;20.12;37.52;101014.23;220131;1268;96261;-87
2023/06/04 18:33:16;;;;;;;5.40;2.00;;;;;;;19.90;37.87;101019.02;219430;1266;139866;-86
2023/06/04 18:38:17;;;;;;;4.30;1.80;;;;;;;19.64;38.78;101020.16;219450;1266;250701;-87
2023/06/04 18:43:17;;;;;;;4.60;1.70;;;;;;;19.41;39.74;101023.90;219224;1266;140250;-86
2023/06/04 18:48:18;;;;;;;4.40;1.40;;;;;;;19.21;39.73;101027.13;219752;1265;138051;-86
2023/06/04 18:53:18;;;;;;;4.20;1.40;;;;;;;19.00;40.74;101028.45;219958;1267;140292;-86
2023/06/04 18:58:19;;;;;;;5.00;1.50;;;;;;;18.73;41.35;101037.48;220363;1266;95218;-86
2023/06/04 19:03:20;;;;;;;5.50;1.30;;;;;;;18.47;41.62;101041.14;219842;1266;140966;-87
2023/06/04 19:08:20;;;;;;;6.20;1.80;;;;;;;18.23;41.45;101048.16;220702;1266;137594;-87
2023/06/04 19:13:20;;;;;;;5.00;1.90;;;;;;;18.01;42.34;101048.59;219845;1265;139738;-86
2023/06/04 19:18:21;;;;;;;4.50;1.60;;;;;;;17.82;42.63;101052.99;220246;1266;138287;-87
2023/06/04 19:23:22;;;;;;;8.20;2.10;;;;;;;17.62;43.12;101056.50;219614;1265;140513;-87
2023/06/04 19:28:22;;;;;;;6.20;1.90;;;;;;;17.43;43.43;101060.52;220015;1265;96660;-87
2023/06/04 19:33:22;;;;;;;7.90;1.80;;;;;;;17.22;43.77;101060.55;219632;1267;140272;-87
2023/06/04 19:43:23;;;;;;;6.10;1.80;;;;;;;16.92;44.49;101059.84;219646;1264;139740;-88
2023/06/04 19:48:23;;;;;;;5.30;2.10;;;;;;;16.82;45.08;101066.72;220110;1268;138043;-87
2023/06/04 19:53:24;;;;;;;3.90;1.50;;;;;;;16.75;45.41;101064.84;219630;1265;140574;-85
2023/06/04 19:58:25;;;;;;;4.50;1.60;;;;;;;16.64;46.07;101066.70;219964;1267;96682;-88
2023/06/04 20:03:26;;;;;;;6.00;1.50;;;;;;;16.49;46.20;101068.49;219524;1268;140021;-87
2023/06/04 20:08:27;;;;;;;6.50;2.40;;;;;;;16.33;46.62;101071.59;220137;1268;137813;-85
2023/06/04 20:13:27;;;;;;;7.90;2.80;;;;;;;16.19;47.07;101077.98;219219;1268;140738;-84
2023/06/04 20:18:28;;;;;;;5.30;2.20;;;;;;;16.03;47.24;101076.88;219631;1266;138815;-83
2023/06/04 20:23:29;;;;;;;7.00;2.60;;;;;;;15.90;47.60;101078.23;219331;1268;142616;-83
2023/06/04 20:28:30;;;;;;;7.00;1.90;;;;;;;15.78;47.96;101079.13;219902;1265;96653;-84
2023/06/04 20:33:31;;;;;;;5.90;2.00;;;;;;;15.66;48.28;101078.71;219350;1266;139578;-84
2023/06/04 20:38:31;;;;;;;6.10;2.20;;;;;;;15.52;48.73;101084.40;220056;1267;138344;-84
2023/06/04 20:43:52;;;;;;;6.20;2.00;;;;;;;15.37;49.24;101087.94;219565;1267;139877;-84
2023/06/04 20:48:52;;;;;;;5.80;2.00;;;;;;;15.21;50.04;101090.65;219611;1265;145477;-83
2023/06/04 20:53:53;;;;;;;5.50;1.80;;;;;;;15.07;50.11;101095.83;220891;1265;137935;-84
2023/06/04 20:58:53;;;;;;;6.70;1.70;;;;;;;14.94;50.06;101093.09;219920;1264;140376;-84
2023/06/04 21:03:54;;;;;;;4.00;1.90;;;;;;;14.81;50.08;101095.16;220543;1265;97176;-84
2023/06/04 21:08:54;;;;;;;5.80;1.70;;;;;;;14.68;50.62;101091.47;219327;1268;140924;-84
2023/06/04 21:13:56;;;;;;;8.20;2.00;;;;;;;14.52;51.00;101087.42;219659;1266;138765;-84
2023/06/04 21:18:56;;;;;;;4.30;1.50;;;;;;;14.38;51.33;101087.89;219207;1268;139874;-84
2023/06/04 21:23:57;;;;;;;4.40;1.70;;;;;;;14.25;51.65;101087.34;219905;1266;138407;-83
2023/06/04 21:28:57;;;;;;;4.00;1.70;;;;;;;14.14;52.23;101092.52;219619;1265;140059;-84
2023/06/04 21:33:57;;;;;;;5.40;2.10;;;;;;;14.02;52.33;101092.20;220642;1265;96534;-84
2023/06/04 21:38:58;;;;;;;5.50;1.80;;;;;;;13.91;52.84;101094.63;219772;1268;139468;-84
2023/06/04 21:43:58;;;;;;;5.20;1.80;;;;;;;13.79;53.32;101098.27;219862;1265;137697;-84
2023/06/04 21:48:58;;;;;;;5.00;1.90;;;;;;;13.66;53.84;101097.11;219171;1265;139446;-84
2023/06/04 21:53:59;;;;;;;6.60;2.60;;;;;;;13.53;54.17;101104.10;219719;1264;137903;-84
2023/06/04 21:59:00;;;;;;;6.50;2.20;;;;;;;13.41;54.48;101106.82;219069;1266;140932;-84
2023/06/04 22:04:00;;;;;;;4.70;2.00;;;;;;;13.28;54.95;101111.02;219798;1268;97494;-84
2023/06/04 22:09:00;;;;;;;4.40;1.50;;;;;;;13.17;54.82;101113.35;219055;1265;139374;-84
2023/06/04 22:14:01;;;;;;;5.80;2.70;;;;;;;13.06;55.63;101114.87;219638;1265;141590;-84
2023/06/04 22:19:02;;;;;;;5.00;2.10;;;;;;;12.94;55.93;101119.06;219122;1266;139634;-84
2023/06/04 22:24:03;;;;;;;5.20;1.70;;;;;;;12.83;56.25;101114.95;219414;1265;138410;-85
2023/06/04 22:29:03;;;;;;;6.20;2.20;;;;;;;12.73;56.35;101119.88;219100;1265;139722;-84
2023/06/04 22:34:04;;;;;;;7.10;2.10;;;;;;;12.64;56.65;101118.33;219716;1266;97214;-83
2023/06/04 22:39:04;;;;;;;5.00;1.80;;;;;;;12.54;57.02;101121.73;219435;1265;228655;-83
2023/06/04 22:44:04;;;;;;;4.70;2.10;;;;;;;12.46;57.15;101123.20;219920;1264;137628;-83
2023/06/04 22:49:05;;;;;;;4.50;1.80;;;;;;;12.37;57.80;101117.31;219047;1264;139713;-83
2023/06/04 22:54:06;;;;;;;6.20;1.70;;;;;;;12.29;57.87;101115.78;219572;1266;138507;-84
2023/06/04 22:59:06;;;;;;;4.70;1.90;;;;;;;12.20;58.44;101120.92;219128;1265;141178;-84
2023/06/04 23:04:07;;;;;;;6.40;1.70;;;;;;;12.11;58.90;101119.27;219891;1266;96539;-83
2023/06/04 23:09:08;;;;;;;3.90;1.60;;;;;;;12.02;59.72;101124.64;219390;1268;141695;-83
2023/06/04 23:14:09;;;;;;;7.40;2.10;;;;;;;11.93;59.72;101129.80;219594;1268;138526;-83
2023/06/04 23:19:12;;;;;;;3.30;1.80;;;;;;;11.86;60.46;101129.89;219594;1265;139921;-83
2023/06/04 23:24:12;;;;;;;4.80;1.90;;;;;;;11.77;60.72;101131.16;220148;1265;138930;-83